Αρχική σελίδα
METAR-TAF:

METAR-TAF

Αεροδρόμια :

Διεθνές Αεροδρόμιο του Καΐρου

Κάιρο, Αίγυπτος

γεωγραφικό πλάτος: 30-08N, γεωγραφικό μήκος: 031-24E, υψόμετρο: 64 μ

Παρών καιρός

Η αναφορά έγινε 24 λεπτά πριν, στις 21:00 UTC
Άνεμος 9 kt από Β
Θερμοκρασία 28°C
Υγρασία 66%
Πίεση 1011 hPa
Ορατότητα 10 χλμ και άνω
Δεν υπάρχουν νέφη με βάση κάτω από τα 1500 μ. και δεν υπάρχουν νέφη σωρειτομελανίτες.

METAR: HECA 172100Z 36009KT CAVOK 28/21 Q1011 NOSIG

Χρόνος: 23:24 (21:24 UTC)

Πρόγνωση Καιρού

Η αναφορά έγινε 4 ώρες και 24 λεπτά πριν, στις 17:00 UTC
Η πρόγνωση ισχύει από τις 17 στις 18 UTC έως τις 18 στις 24 UTC
Άνεμος 10 kt από Β/BΔ
Ορατότητα 10 χλμ και άνω
Δεν υπάρχουν νέφη με βάση κάτω από τα 1500 μ. και δεν υπάρχουν νέφη σωρειτομελανίτες.
Προσωρινά
από 18 στις 02 UTC έως τις 18 στις 06 UTC
Άνεμος 3 kt από μεταβλητές κατευθύνσεις

TAF: HECA 171700Z 1718/1824 34010KT CAVOK TEMPO 1802/1806 VRB03KT 3000BR NSC

Μετεωρολογικές αναφορές και προγνώσεις για περισσότερα από 4000 αεροδρόμια (δελτία METAR και TAF).

Οι διαθέσιμοι σταθμοί απεικονίζονται στο χάρτη με κίτρινες και κόκκινες κουκκίδες.

Μετακινήστε το ποντίκι πάνω από τις κουκκίδες για να δείτε το όνομα του σταθμού.

Στη συνέχεια, κάντε κλικ για να δείτε τις μετεωρολογικές αναφορές και τις προγνώσεις καιρού.

Για να αλλάξετε το χάρτη: κάντε κλικ στα πράσινα κουμπιά με τον μαύρο σταυρό για να ζουμάρετε, στο πράσινο κουμπί με την παύλα για να αφαιρέσετε το ζουμ ή στα πράσινα βέλη για να αντιπαραβάλλετε χάρτες.


METAR-TAF: